Time,TemperatureF,DewpointF,PressureIn,WindDirection,WindDirectionDegrees,WindSpeedMPH,WindSpeedGustMPH,Humidity,HourlyPrecipIn,Conditions,Clouds,dailyrainin,SoftwareType,DateUTC
2013-01-21 00:01:00,23.7,14.3,30.10,WNW,294,2.0,-999.0,67,0.00,,,0.00,Wunderground v.1.15,2013-01-21 05:01:00,
2013-01-21 00:02:00,23.7,14.3,30.10,WNW,294,2.0,-999.0,67,0.00,,,0.00,Wunderground v.1.15,2013-01-21 05:02:00,
2013-01-21 00:03:00,23.7,14.3,30.10,WNW,294,2.0,-999.0,67,0.00,,,0.00,Wunderground v.1.15,2013-01-21 05:03:00,
2013-01-21 00:09:00,23.6,14.2,30.10,WNW,294,1.0,-999.0,67,0.00,,,0.00,Wunderground v.1.15,2013-01-21 05:09:00,
2013-01-21 00:15:00,23.5,14.1,30.10,WNW,293,3.0,-999.0,67,0.00,,,0.00,Wunderground v.1.15,2013-01-21 05:15:00,
2013-01-21 00:21:00,23.5,14.1,30.09,WNW,293,2.0,-999.0,67,0.00,,,0.00,Wunderground v.1.15,2013-01-21 05:21:00,
2013-01-21 00:27:00,23.5,14.5,30.09,WNW,293,0.0,-999.0,68,0.00,,,0.00,Wunderground v.1.15,2013-01-21 05:27:00,
2013-01-21 00:32:00,23.5,14.1,30.09,WNW,293,1.0,-999.0,67,0.00,,,0.00,Wunderground v.1.15,2013-01-21 05:32:00,
2013-01-21 00:37:00,23.5,14.5,30.09,WNW,293,1.0,-999.0,68,0.00,,,0.00,Wunderground v.1.15,2013-01-21 05:37:00,
2013-01-21 00:42:00,23.4,14.0,30.08,WNW,293,1.0,-999.0,67,0.00,,,0.00,Wunderground v.1.15,2013-01-21 05:42:00,
2013-01-21 00:48:00,23.4,14.0,30.08,NNW,332,1.0,-999.0,67,0.00,,,0.00,Wunderground v.1.15,2013-01-21 05:48:00,
2013-01-21 00:53:00,23.4,14.0,30.09,WNW,289,2.0,-999.0,67,0.00,,,0.00,Wunderground v.1.15,2013-01-21 05:53:00,
2013-01-21 00:58:00,23.4,14.0,30.09,WNW,289,2.0,-999.0,67,0.00,,,0.00,Wunderground v.1.15,2013-01-21 05:58:00,
2013-01-21 01:04:00,23.4,14.0,30.09,WNW,291,3.0,-999.0,67,0.00,,,0.00,Wunderground v.1.15,2013-01-21 06:04:00,
2013-01-21 01:10:00,23.3,13.6,30.08,WNW,302,3.0,-999.0,66,0.00,,,0.00,Wunderground v.1.15,2013-01-21 06:10:00,
2013-01-21 01:15:00,23.2,13.9,30.08,West,263,2.0,-999.0,67,0.00,,,0.00,Wunderground v.1.15,2013-01-21 06:15:00,
2013-01-21 01:20:00,23.1,14.1,30.08,WNW,299,3.0,-999.0,68,0.00,,,0.00,Wunderground v.1.15,2013-01-21 06:20:00,
2013-01-21 01:26:00,23.0,14.0,30.08,WNW,298,2.0,-999.0,68,0.00,,,0.00,Wunderground v.1.15,2013-01-21 06:26:00,
2013-01-21 01:32:00,23.0,14.7,30.08,WNW,298,1.0,-999.0,70,0.00,,,0.00,Wunderground v.1.15,2013-01-21 06:32:00,
2013-01-21 01:37:00,22.9,14.6,30.08,WNW,298,1.0,-999.0,70,0.00,,,0.00,Wunderground v.1.15,2013-01-21 06:37:00,
2013-01-21 01:43:00,22.8,14.8,30.07,WNW,298,1.0,-999.0,71,0.00,,,0.00,Wunderground v.1.15,2013-01-21 06:43:00,
2013-01-21 01:48:00,22.8,15.1,30.07,NW,324,0.0,-999.0,72,0.00,,,0.00,Wunderground v.1.15,2013-01-21 06:48:00,
2013-01-21 01:54:00,22.8,15.1,30.07,NW,324,0.0,-999.0,72,0.00,,,0.00,Wunderground v.1.15,2013-01-21 06:54:00,
2013-01-21 02:00:00,22.7,14.7,30.08,NW,309,1.0,-999.0,71,0.00,,,0.00,Wunderground v.1.15,2013-01-21 07:00:00,
2013-01-21 02:06:00,22.7,15.0,30.07,NW,309,1.0,-999.0,72,0.00,,,0.00,Wunderground v.1.15,2013-01-21 07:06:00,
2013-01-21 02:12:00,22.6,14.9,30.07,NW,309,0.0,-999.0,72,0.00,,,0.00,Wunderground v.1.15,2013-01-21 07:12:00,
2013-01-21 02:18:00,22.6,14.9,30.07,NW,306,1.0,-999.0,72,0.00,,,0.00,Wunderground v.1.15,2013-01-21 07:18:00,
2013-01-21 02:23:00,22.5,14.8,30.08,NW,306,1.0,-999.0,72,0.00,,,0.00,Wunderground v.1.15,2013-01-21 07:23:00,
2013-01-21 02:29:00,22.4,14.7,30.08,NW,306,1.0,-999.0,72,0.00,,,0.00,Wunderground v.1.15,2013-01-21 07:29:00,
2013-01-21 02:35:00,22.3,14.6,30.07,NW,306,1.0,-999.0,72,0.00,,,0.00,Wunderground v.1.15,2013-01-21 07:35:00,
2013-01-21 02:41:00,22.3,14.6,30.07,WNW,300,1.0,-999.0,72,0.00,,,0.00,Wunderground v.1.15,2013-01-21 07:41:00,
2013-01-21 02:46:00,22.3,14.6,30.07,WNW,300,1.0,-999.0,72,0.00,,,0.00,Wunderground v.1.15,2013-01-21 07:46:00,
2013-01-21 02:52:00,22.2,14.5,30.07,WNW,300,1.0,-999.0,72,0.00,,,0.00,Wunderground v.1.15,2013-01-21 07:52:00,
2013-01-21 02:57:00,22.3,15.0,30.07,WNW,300,1.0,-999.0,73,0.00,,,0.00,Wunderground v.1.15,2013-01-21 07:57:00,
2013-01-21 03:03:00,22.2,14.9,30.07,WNW,302,1.0,-999.0,73,0.00,,,0.00,Wunderground v.1.15,2013-01-21 08:03:00,
2013-01-21 03:09:00,22.2,14.9,30.07,WNW,302,2.0,-999.0,73,0.00,,,0.00,Wunderground v.1.15,2013-01-21 08:09:00,
2013-01-21 03:14:00,22.1,14.8,30.07,WNW,302,1.0,-999.0,73,0.00,,,0.00,Wunderground v.1.15,2013-01-21 08:14:00,
2013-01-21 03:19:00,22.1,14.8,30.06,WNW,302,1.0,-999.0,73,0.00,,,0.00,Wunderground v.1.15,2013-01-21 08:19:00,
2013-01-21 03:25:00,22.1,14.8,30.06,WNW,302,0.0,-999.0,73,0.00,,,0.00,Wunderground v.1.15,2013-01-21 08:25:00,
2013-01-21 03:31:00,22.1,14.8,30.06,WNW,302,0.0,-999.0,73,0.00,,,0.00,Wunderground v.1.15,2013-01-21 08:31:00,
2013-01-21 03:37:00,22.2,15.2,30.06,WNW,302,0.0,-999.0,74,0.00,,,0.00,Wunderground v.1.15,2013-01-21 08:37:00,
2013-01-21 03:43:00,22.0,14.7,30.06,WNW,302,0.0,-999.0,73,0.00,,,0.00,Wunderground v.1.15,2013-01-21 08:43:00,
2013-01-21 03:48:00,22.0,15.0,30.06,WNW,302,0.0,-999.0,74,0.00,,,0.00,Wunderground v.1.15,2013-01-21 08:48:00,
2013-01-21 03:54:00,22.0,15.3,30.05,WNW,302,0.0,-999.0,75,0.00,,,0.00,Wunderground v.1.15,2013-01-21 08:54:00,
2013-01-21 03:59:00,21.9,15.2,30.05,WNW,302,0.0,-999.0,75,0.00,,,0.00,Wunderground v.1.15,2013-01-21 08:59:00,
2013-01-21 04:04:00,21.9,15.2,30.05,WNW,302,0.0,-999.0,75,0.00,,,0.00,Wunderground v.1.15,2013-01-21 09:04:00,
2013-01-21 04:10:00,21.9,15.2,30.05,WNW,302,0.0,-999.0,75,0.00,,,0.00,Wunderground v.1.15,2013-01-21 09:10:00,
2013-01-21 04:16:00,21.9,15.5,30.05,WNW,302,0.0,-999.0,76,0.00,,,0.00,Wunderground v.1.15,2013-01-21 09:16:00,
2013-01-21 04:22:00,21.8,15.4,30.04,WNW,302,0.0,-999.0,76,0.00,,,0.00,Wunderground v.1.15,2013-01-21 09:22:00,
2013-01-21 04:28:00,21.8,15.4,30.04,WNW,302,0.0,-999.0,76,0.00,,,0.00,Wunderground v.1.15,2013-01-21 09:28:00,
2013-01-21 04:34:00,21.7,15.3,30.04,WNW,302,0.0,-999.0,76,0.00,,,0.00,Wunderground v.1.15,2013-01-21 09:34:00,
2013-01-21 04:40:00,21.6,15.2,30.04,WNW,302,0.0,-999.0,76,0.00,,,0.00,Wunderground v.1.15,2013-01-21 09:40:00,
2013-01-21 04:45:00,21.6,15.2,30.04,WNW,302,0.0,-999.0,76,0.00,,,0.00,Wunderground v.1.15,2013-01-21 09:45:00,
2013-01-21 04:51:00,21.5,15.1,30.04,WNW,302,0.0,-999.0,76,0.00,,,0.00,Wunderground v.1.15,2013-01-21 09:51:00,
2013-01-21 04:56:00,21.6,15.5,30.04,WNW,302,0.0,-999.0,77,0.00,,,0.00,Wunderground v.1.15,2013-01-21 09:56:00,
2013-01-21 05:02:00,21.6,15.5,30.04,WNW,302,0.0,-999.0,77,0.00,,,0.00,Wunderground v.1.15,2013-01-21 10:02:00,
2013-01-21 05:07:00,21.6,15.5,30.04,WNW,302,1.0,-999.0,77,0.00,,,0.00,Wunderground v.1.15,2013-01-21 10:07:00,
2013-01-21 05:13:00,21.5,15.4,30.04,WNW,302,0.0,-999.0,77,0.00,,,0.00,Wunderground v.1.15,2013-01-21 10:13:00,
2013-01-21 05:19:00,21.4,15.3,30.04,WNW,302,1.0,-999.0,77,0.00,,,0.00,Wunderground v.1.15,2013-01-21 10:19:00,
2013-01-21 05:25:00,21.4,15.3,30.04,WNW,302,1.0,-999.0,77,0.00,,,0.00,Wunderground v.1.15,2013-01-21 10:25:00,
2013-01-21 05:31:00,21.4,15.6,30.04,WNW,302,0.0,-999.0,78,0.00,,,0.00,Wunderground v.1.15,2013-01-21 10:31:00,
2013-01-21 05:37:00,21.3,15.5,30.03,WNW,302,0.0,-999.0,78,0.00,,,0.00,Wunderground v.1.15,2013-01-21 10:37:00,
2013-01-21 05:43:00,21.4,15.9,30.03,WNW,302,0.0,-999.0,79,0.00,,,0.00,Wunderground v.1.15,2013-01-21 10:43:00,
2013-01-21 05:49:00,21.3,15.5,30.03,WNW,302,0.0,-999.0,78,0.00,,,0.00,Wunderground v.1.15,2013-01-21 10:49:00,
2013-01-21 05:55:00,21.3,15.5,30.03,WNW,302,0.0,-999.0,78,0.00,,,0.00,Wunderground v.1.15,2013-01-21 10:55:00,
2013-01-21 06:00:00,21.3,15.5,30.03,WNW,302,0.0,-999.0,78,0.00,,,0.00,Wunderground v.1.15,2013-01-21 11:00:00,
2013-01-21 06:06:00,21.3,15.8,30.03,WNW,302,0.0,-999.0,79,0.00,,,0.00,Wunderground v.1.15,2013-01-21 11:06:00,
2013-01-21 06:12:00,21.3,15.8,30.03,WNW,302,0.0,-999.0,79,0.00,,,0.00,Wunderground v.1.15,2013-01-21 11:12:00,
2013-01-21 06:17:00,21.2,15.7,30.03,WNW,302,1.0,-999.0,79,0.00,,,0.00,Wunderground v.1.15,2013-01-21 11:17:00,
2013-01-21 06:22:00,21.2,15.7,30.03,WNW,302,1.0,-999.0,79,0.00,,,0.00,Wunderground v.1.15,2013-01-21 11:22:00,
2013-01-21 06:29:00,21.2,16.0,30.03,WNW,302,1.0,-999.0,80,0.00,,,0.00,Wunderground v.1.15,2013-01-21 11:29:00,
2013-01-21 06:35:00,21.1,15.9,30.03,WNW,302,1.0,-999.0,80,0.00,,,0.00,Wunderground v.1.15,2013-01-21 11:35:00,
2013-01-21 06:41:00,21.1,15.9,30.03,WNW,302,0.0,-999.0,80,0.00,,,0.00,Wunderground v.1.15,2013-01-21 11:41:00,
2013-01-21 06:47:00,21.1,15.9,30.03,WNW,302,0.0,-999.0,80,0.00,,,0.00,Wunderground v.1.15,2013-01-21 11:47:00,
2013-01-21 06:52:00,21.1,15.9,30.03,WNW,302,0.0,-999.0,80,0.00,,,0.00,Wunderground v.1.15,2013-01-21 11:52:00,
2013-01-21 06:58:00,21.0,15.8,30.03,WNW,302,0.0,-999.0,80,0.00,,,0.00,Wunderground v.1.15,2013-01-21 11:58:00,
2013-01-21 07:04:00,20.9,15.7,30.03,WNW,302,0.0,-999.0,80,0.00,,,0.00,Wunderground v.1.15,2013-01-21 12:04:00,
2013-01-21 07:10:00,20.9,15.7,30.03,WNW,302,1.0,-999.0,80,0.00,,,0.00,Wunderground v.1.15,2013-01-21 12:10:00,
2013-01-21 07:16:00,20.9,15.7,30.03,WNW,302,0.0,-999.0,80,0.00,,,0.00,Wunderground v.1.15,2013-01-21 12:16:00,
2013-01-21 07:22:00,20.9,15.7,30.02,WNW,302,0.0,-999.0,80,0.00,,,0.00,Wunderground v.1.15,2013-01-21 12:22:00,
2013-01-21 07:28:00,20.9,15.7,30.02,WNW,302,1.0,-999.0,80,0.00,,,0.00,Wunderground v.1.15,2013-01-21 12:28:00,
2013-01-21 07:34:00,20.9,16.0,30.02,WNW,302,0.0,-999.0,81,0.00,,,0.00,Wunderground v.1.15,2013-01-21 12:34:00,
2013-01-21 07:40:00,20.8,15.9,30.02,WNW,302,0.0,-999.0,81,0.00,,,0.00,Wunderground v.1.15,2013-01-21 12:40:00,
2013-01-21 07:45:00,20.8,15.9,30.01,WNW,302,0.0,-999.0,81,0.00,,,0.00,Wunderground v.1.15,2013-01-21 12:45:00,
2013-01-21 07:51:00,20.7,15.8,30.01,WNW,302,0.0,-999.0,81,0.00,,,0.00,Wunderground v.1.15,2013-01-21 12:51:00,
2013-01-21 07:57:00,20.7,16.1,30.01,WNW,302,0.0,-999.0,82,0.00,,,0.00,Wunderground v.1.15,2013-01-21 12:57:00,
2013-01-21 08:03:00,20.7,16.1,30.01,WNW,302,0.0,-999.0,82,0.00,,,0.00,Wunderground v.1.15,2013-01-21 13:03:00,
2013-01-21 08:09:00,20.7,16.1,30.01,WNW,302,0.0,-999.0,82,0.00,,,0.00,Wunderground v.1.15,2013-01-21 13:09:00,
2013-01-21 08:15:00,20.7,16.1,30.01,WNW,302,0.0,-999.0,82,0.00,,,0.00,Wunderground v.1.15,2013-01-21 13:15:00,
2013-01-21 08:21:00,20.7,16.1,30.01,WNW,302,0.0,-999.0,82,0.00,,,0.00,Wunderground v.1.15,2013-01-21 13:21:00,
2013-01-21 08:27:00,20.7,16.1,30.01,WNW,302,0.0,-999.0,82,0.00,,,0.00,Wunderground v.1.15,2013-01-21 13:27:00,
2013-01-21 08:33:00,20.7,16.4,30.01,WNW,302,0.0,-999.0,83,0.00,,,0.00,Wunderground v.1.15,2013-01-21 13:33:00,
2013-01-21 08:39:00,20.8,16.5,30.01,WNW,302,0.0,-999.0,83,0.00,,,0.00,Wunderground v.1.15,2013-01-21 13:39:00,
2013-01-21 08:45:00,20.9,16.5,30.01,WNW,302,1.0,-999.0,83,0.00,,,0.00,Wunderground v.1.15,2013-01-21 13:45:00,
2013-01-21 08:50:00,21.0,16.6,30.01,WNW,302,1.0,-999.0,83,0.00,,,0.00,Wunderground v.1.15,2013-01-21 13:50:00,
2013-01-21 08:56:00,21.2,16.6,30.01,WSW,239,1.0,-999.0,82,0.00,,,0.00,Wunderground v.1.15,2013-01-21 13:56:00,
2013-01-21 09:01:00,21.2,16.3,30.01,SW,219,2.0,-999.0,81,0.00,,,0.00,Wunderground v.1.15,2013-01-21 14:01:00,
2013-01-21 09:07:00,21.3,16.4,30.01,SW,219,3.0,-999.0,81,0.00,,,0.00,Wunderground v.1.15,2013-01-21 14:07:00,
2013-01-21 09:13:00,21.4,16.5,30.00,SW,219,2.0,-999.0,81,0.00,,,0.00,Wunderground v.1.15,2013-01-21 14:13:00,
2013-01-21 09:19:00,21.4,16.5,30.01,SW,219,2.0,-999.0,81,0.00,,,0.00,Wunderground v.1.15,2013-01-21 14:19:00,
2013-01-21 09:25:00,21.5,16.6,30.01,SW,219,2.0,-999.0,81,0.00,,,0.00,Wunderground v.1.15,2013-01-21 14:25:00,
2013-01-21 09:31:00,21.5,16.3,30.01,SW,215,2.0,-999.0,80,0.00,,,0.00,Wunderground v.1.15,2013-01-21 14:31:00,
2013-01-21 09:37:00,21.5,16.3,30.01,WSW,242,2.0,-999.0,80,0.00,,,0.00,Wunderground v.1.15,2013-01-21 14:37:00,
2013-01-21 09:43:00,21.6,16.4,30.01,SW,232,3.0,-999.0,80,0.00,,,0.00,Wunderground v.1.15,2013-01-21 14:43:00,
2013-01-21 09:49:00,21.7,16.5,30.00,SW,230,2.0,-999.0,80,0.00,,,0.00,Wunderground v.1.15,2013-01-21 14:49:00,
2013-01-21 09:55:00,21.7,16.5,30.00,WNW,296,2.0,-999.0,80,0.00,,,0.00,Wunderground v.1.15,2013-01-21 14:55:00,
2013-01-21 10:01:00,21.8,16.6,30.00,WSW,244,2.0,-999.0,80,0.00,,,0.00,Wunderground v.1.15,2013-01-21 15:01:00,
2013-01-21 10:07:00,21.7,16.8,30.00,NW,305,3.0,-999.0,81,0.00,,,0.00,Wunderground v.1.15,2013-01-21 15:07:00,
2013-01-21 10:13:00,21.7,16.8,30.00,WNW,298,3.0,-999.0,81,0.00,,,0.00,Wunderground v.1.15,2013-01-21 15:13:00,
2013-01-21 10:19:00,21.6,17.0,29.99,West,272,3.0,-999.0,82,0.00,,,0.00,Wunderground v.1.15,2013-01-21 15:19:00,
2013-01-21 10:25:00,21.5,17.1,29.99,WNW,285,2.0,-999.0,83,0.00,,,0.00,Wunderground v.1.15,2013-01-21 15:25:00,
2013-01-21 10:31:00,21.5,17.1,29.99,West,280,2.0,-999.0,83,0.00,,,0.00,Wunderground v.1.15,2013-01-21 15:31:00,
2013-01-21 10:36:00,21.4,17.0,29.99,WNW,295,2.0,-999.0,83,0.00,,,0.00,Wunderground v.1.15,2013-01-21 15:36:00,
2013-01-21 10:42:00,21.3,16.9,29.99,WNW,295,2.0,-999.0,83,0.00,,,0.00,Wunderground v.1.15,2013-01-21 15:42:00,
2013-01-21 10:48:00,21.3,17.2,29.99,WNW,294,2.0,-999.0,84,0.00,,,0.00,Wunderground v.1.15,2013-01-21 15:48:00,
2013-01-21 10:54:00,21.4,17.3,29.98,WNW,294,1.0,-999.0,84,0.00,,,0.00,Wunderground v.1.15,2013-01-21 15:54:00,
2013-01-21 11:00:00,21.5,17.4,29.98,WNW,294,1.0,-999.0,84,0.00,,,0.00,Wunderground v.1.15,2013-01-21 16:00:00,
2013-01-21 11:05:00,21.6,17.5,29.98,WNW,294,2.0,-999.0,84,0.00,,,0.00,Wunderground v.1.15,2013-01-21 16:05:00,
2013-01-21 11:11:00,21.6,19.6,29.98,WNW,294,2.0,-999.0,92,0.00,,,0.00,Wunderground v.1.15,2013-01-21 16:11:00,
2013-01-21 11:16:00,21.5,17.7,29.98,WNW,295,3.0,-999.0,85,0.00,,,0.00,Wunderground v.1.15,2013-01-21 16:16:00,
2013-01-21 11:22:00,21.3,17.5,29.97,WNW,302,3.0,-999.0,85,0.00,,,0.00,Wunderground v.1.15,2013-01-21 16:22:00,
2013-01-21 11:28:00,21.4,17.9,29.97,West,275,3.0,-999.0,86,0.00,,,0.00,Wunderground v.1.15,2013-01-21 16:28:00,
2013-01-21 11:34:00,21.5,17.7,29.97,West,279,3.0,-999.0,85,0.00,,,0.00,Wunderground v.1.15,2013-01-21 16:34:00,
2013-01-21 11:40:00,21.5,17.7,29.97,West,277,4.0,-999.0,85,0.00,,,0.00,Wunderground v.1.15,2013-01-21 16:40:00,
2013-01-21 11:45:00,21.5,17.7,29.97,WNW,285,3.0,-999.0,85,0.00,,,0.00,Wunderground v.1.15,2013-01-21 16:45:00,
2013-01-21 11:51:00,21.5,17.7,29.97,West,277,4.0,-999.0,85,0.00,,,0.00,Wunderground v.1.15,2013-01-21 16:51:00,
2013-01-21 11:57:00,21.5,17.7,29.96,WNW,286,5.0,-999.0,85,0.00,,,0.00,Wunderground v.1.15,2013-01-21 16:57:00,
2013-01-21 12:03:00,21.6,17.8,29.96,WNW,297,4.0,-999.0,85,0.00,,,0.00,Wunderground v.1.15,2013-01-21 17:03:00,
2013-01-21 12:09:00,21.6,17.5,29.95,WNW,283,4.0,-999.0,84,0.00,,,0.00,Wunderground v.1.15,2013-01-21 17:09:00,
2013-01-21 12:15:00,21.7,17.9,29.95,SW,236,4.0,-999.0,85,0.00,,,0.00,Wunderground v.1.15,2013-01-21 17:15:00,
2013-01-21 12:21:00,21.8,18.0,29.94,WNW,287,3.0,-999.0,85,0.00,,,0.00,Wunderground v.1.15,2013-01-21 17:21:00,
2013-01-21 12:27:00,22.0,17.9,29.94,WNW,297,3.0,-999.0,84,0.00,,,0.00,Wunderground v.1.15,2013-01-21 17:27:00,
2013-01-21 12:33:00,22.1,18.0,29.94,WNW,293,4.0,-999.0,84,0.00,,,0.00,Wunderground v.1.15,2013-01-21 17:33:00,
2013-01-21 12:39:00,22.0,17.9,29.94,WNW,290,5.0,-999.0,84,0.00,,,0.00,Wunderground v.1.15,2013-01-21 17:39:00,
2013-01-21 12:44:00,21.9,18.1,29.94,NW,307,6.0,-999.0,85,0.00,,,0.00,Wunderground v.1.15,2013-01-21 17:44:00,
2013-01-21 13:09:00,22.7,15.7,29.93,WSW,251,8.0,-999.0,74,0.00,,,0.00,Wunderground v.1.15,2013-01-21 18:09:00,
2013-01-21 13:15:00,23.0,15.6,29.93,WNW,301,8.0,-999.0,73,0.00,,,0.00,Wunderground v.1.15,2013-01-21 18:15:00,
2013-01-21 13:21:00,23.1,14.4,29.94,WNW,302,7.0,-999.0,69,0.00,,,0.00,Wunderground v.1.15,2013-01-21 18:21:00,
2013-01-21 13:27:00,23.4,14.0,29.94,West,279,9.0,-999.0,67,0.00,,,0.00,Wunderground v.1.15,2013-01-21 18:27:00,
2013-01-21 13:33:00,23.6,13.9,29.94,WNW,298,9.0,-999.0,66,0.00,,,0.00,Wunderground v.1.15,2013-01-21 18:33:00,
2013-01-21 13:39:00,23.4,12.6,29.93,WNW,292,9.0,-999.0,63,0.00,,,0.00,Wunderground v.1.15,2013-01-21 18:39:00,
2013-01-21 13:45:00,23.4,11.9,29.93,WNW,301,9.0,-999.0,61,0.00,,,0.00,Wunderground v.1.15,2013-01-21 18:45:00,
2013-01-21 13:51:00,23.3,12.2,29.94,WNW,300,10.0,-999.0,62,0.00,,,0.00,Wunderground v.1.15,2013-01-21 18:51:00,
2013-01-21 13:57:00,22.9,12.5,29.94,WNW,303,10.0,-999.0,64,0.00,,,0.00,Wunderground v.1.15,2013-01-21 18:57:00,
2013-01-21 14:02:00,23.0,14.0,29.94,SW,236,9.0,-999.0,68,0.00,,,0.00,Wunderground v.1.15,2013-01-21 19:02:00,
2013-01-21 14:08:00,23.6,14.6,29.94,WNW,302,7.0,-999.0,68,0.00,,,0.00,Wunderground v.1.15,2013-01-21 19:08:00,
2013-01-21 14:14:00,23.8,14.1,29.94,West,281,7.0,-999.0,66,0.00,,,0.00,Wunderground v.1.15,2013-01-21 19:14:00,
2013-01-21 14:20:00,23.3,13.3,29.95,WNW,286,8.0,-999.0,65,0.00,,,0.00,Wunderground v.1.15,2013-01-21 19:20:00,
2013-01-21 14:26:00,22.1,13.1,29.95,WSW,244,9.0,-999.0,68,0.00,,,0.00,Wunderground v.1.15,2013-01-21 19:26:00,
2013-01-21 14:31:00,21.5,14.5,29.95,WNW,294,9.0,-999.0,74,0.00,,,0.00,Wunderground v.1.15,2013-01-21 19:31:00,
2013-01-21 14:37:00,21.6,15.2,29.95,West,271,7.0,-999.0,76,0.00,,,0.00,Wunderground v.1.15,2013-01-21 19:37:00,
2013-01-21 14:43:00,22.0,15.3,29.95,NW,304,6.0,-999.0,75,0.00,,,0.00,Wunderground v.1.15,2013-01-21 19:43:00,
2013-01-21 14:49:00,21.7,14.7,29.95,WNW,287,8.0,-999.0,74,0.00,,,0.00,Wunderground v.1.15,2013-01-21 19:49:00,
2013-01-21 14:54:00,21.1,15.6,29.95,WSW,248,8.0,-999.0,79,0.00,,,0.00,Wunderground v.1.15,2013-01-21 19:54:00,
2013-01-21 15:00:00,21.1,15.6,29.95,WNW,294,6.0,-999.0,79,0.00,,,0.00,Wunderground v.1.15,2013-01-21 20:00:00,
2013-01-21 15:06:00,21.2,15.1,29.95,WNW,288,6.0,-999.0,77,0.00,,,0.00,Wunderground v.1.15,2013-01-21 20:06:00,
2013-01-21 15:12:00,20.8,14.7,29.96,WNW,292,8.0,-999.0,77,0.00,,,0.00,Wunderground v.1.15,2013-01-21 20:12:00,
2013-01-21 15:18:00,21.1,13.5,29.97,NW,306,9.0,-999.0,72,0.00,,,0.00,Wunderground v.1.15,2013-01-21 20:18:00,
2013-01-21 15:24:00,21.5,13.5,29.97,West,269,9.0,-999.0,71,0.00,,,0.00,Wunderground v.1.15,2013-01-21 20:24:00,
2013-01-21 15:30:00,21.4,11.1,29.97,WNW,296,9.0,-999.0,64,0.00,,,0.00,Wunderground v.1.15,2013-01-21 20:30:00,
2013-01-21 15:36:00,21.1,9.0,29.97,West,267,9.0,-999.0,59,0.00,,,0.00,Wunderground v.1.15,2013-01-21 20:36:00,
2013-01-21 15:42:00,21.1,8.6,29.97,WNW,301,9.0,-999.0,58,0.00,,,0.00,Wunderground v.1.15,2013-01-21 20:42:00,
2013-01-21 15:48:00,20.9,8.4,29.97,WNW,283,11.0,-999.0,58,0.00,,,0.00,Wunderground v.1.15,2013-01-21 20:48:00,
2013-01-21 15:54:00,20.8,9.5,29.97,NW,304,11.0,-999.0,61,0.00,,,0.00,Wunderground v.1.15,2013-01-21 20:54:00,
2013-01-21 15:59:00,20.7,9.7,29.98,WNW,296,8.0,-999.0,62,0.00,,,0.00,Wunderground v.1.15,2013-01-21 20:59:00,
2013-01-21 16:05:00,20.6,9.6,29.98,WNW,302,8.0,-999.0,62,0.00,,,0.00,Wunderground v.1.15,2013-01-21 21:05:00,
2013-01-21 16:10:00,20.4,10.1,29.98,NE,52,8.0,-999.0,64,0.00,,,0.00,Wunderground v.1.15,2013-01-21 21:10:00,
2013-01-21 16:16:00,20.2,11.0,29.98,NW,318,7.0,-999.0,67,0.00,,,0.00,Wunderground v.1.15,2013-01-21 21:16:00,
2013-01-21 16:22:00,19.9,9.7,29.99,NW,306,8.0,-999.0,64,0.00,,,0.00,Wunderground v.1.15,2013-01-21 21:22:00,
2013-01-21 16:27:00,19.9,9.7,29.99,NW,306,8.0,-999.0,64,0.00,,,0.00,Wunderground v.1.15,2013-01-21 21:27:00,
2013-01-21 16:33:00,19.8,9.9,29.99,WNW,294,8.0,-999.0,65,0.00,,,0.00,Wunderground v.1.15,2013-01-21 21:33:00,
2013-01-21 16:39:00,19.5,11.0,30.00,NW,304,7.0,-999.0,69,0.00,,,0.00,Wunderground v.1.15,2013-01-21 21:39:00,
2013-01-21 16:45:00,19.2,11.3,30.00,WNW,287,6.0,-999.0,71,0.00,,,0.00,Wunderground v.1.15,2013-01-21 21:45:00,
2013-01-21 16:51:00,19.0,11.8,30.00,WNW,302,4.0,-999.0,73,0.00,,,0.00,Wunderground v.1.15,2013-01-21 21:51:00,
2013-01-21 16:56:00,18.5,11.9,30.01,WNW,300,5.0,-999.0,75,0.00,,,0.00,Wunderground v.1.15,2013-01-21 21:56:00,
2013-01-21 17:02:00,18.2,11.6,30.01,WNW,299,5.0,-999.0,75,0.00,,,0.00,Wunderground v.1.15,2013-01-21 22:02:00,
2013-01-21 17:08:00,18.3,10.1,30.01,WNW,298,5.0,-999.0,70,0.00,,,0.00,Wunderground v.1.15,2013-01-21 22:08:00,
2013-01-21 17:13:00,18.5,7.6,30.01,WNW,289,9.0,-999.0,62,0.00,,,0.00,Wunderground v.1.15,2013-01-21 22:13:00,
2013-01-21 17:19:00,18.5,6.9,30.02,NW,310,10.0,-999.0,60,0.00,,,0.00,Wunderground v.1.15,2013-01-21 22:19:00,
2013-01-21 17:25:00,18.1,5.0,30.02,WNW,284,10.0,-999.0,56,0.00,,,0.00,Wunderground v.1.15,2013-01-21 22:25:00,
2013-01-21 17:30:00,17.8,4.7,30.02,WNW,290,9.0,-999.0,56,0.00,,,0.00,Wunderground v.1.15,2013-01-21 22:30:00,
2013-01-21 17:36:00,17.6,5.3,30.02,West,277,9.0,-999.0,58,0.00,,,0.00,Wunderground v.1.15,2013-01-21 22:36:00,
2013-01-21 17:42:00,17.5,5.2,30.03,WNW,296,7.0,-999.0,58,0.00,,,0.00,Wunderground v.1.15,2013-01-21 22:42:00,
2013-01-21 17:48:00,17.4,4.7,30.03,NW,304,5.0,-999.0,57,0.00,,,0.00,Wunderground v.1.15,2013-01-21 22:48:00,
2013-01-21 17:54:00,17.3,4.3,30.03,WNW,299,7.0,-999.0,56,0.00,,,0.00,Wunderground v.1.15,2013-01-21 22:54:00,
2013-01-21 18:00:00,17.2,3.4,30.04,NW,304,9.0,-999.0,54,0.00,,,0.00,Wunderground v.1.15,2013-01-21 23:00:00,
2013-01-21 18:06:00,17.0,3.2,30.04,WSW,252,10.0,-999.0,54,0.00,,,0.00,Wunderground v.1.15,2013-01-21 23:06:00,
2013-01-21 18:11:00,16.9,3.5,30.04,WNW,303,9.0,-999.0,55,0.00,,,0.00,Wunderground v.1.15,2013-01-21 23:11:00,
2013-01-21 18:17:00,16.7,4.5,30.04,NNW,339,8.0,-999.0,58,0.00,,,0.00,Wunderground v.1.15,2013-01-21 23:17:00,
2013-01-21 18:23:00,16.4,5.6,30.05,WNW,287,7.0,-999.0,62,0.00,,,0.00,Wunderground v.1.15,2013-01-21 23:23:00,
2013-01-21 18:29:00,16.0,6.3,30.04,West,277,6.0,-999.0,65,0.00,,,0.00,Wunderground v.1.15,2013-01-21 23:29:00,
2013-01-21 18:35:00,15.7,5.7,30.04,WNW,297,6.0,-999.0,64,0.00,,,0.00,Wunderground v.1.15,2013-01-21 23:35:00,
2013-01-21 18:41:00,15.6,5.2,30.05,WNW,296,6.0,-999.0,63,0.00,,,0.00,Wunderground v.1.15,2013-01-21 23:41:00,
2013-01-21 18:47:00,15.6,5.2,30.04,NW,311,6.0,-999.0,63,0.00,,,0.00,Wunderground v.1.15,2013-01-21 23:47:00,
2013-01-21 18:53:00,15.5,5.1,30.04,WNW,297,5.0,-999.0,63,0.00,,,0.00,Wunderground v.1.15,2013-01-21 23:53:00,
2013-01-21 18:58:00,15.4,4.7,30.05,WNW,290,5.0,-999.0,62,0.00,,,0.00,Wunderground v.1.15,2013-01-21 23:58:00,
2013-01-21 19:04:00,15.2,4.5,30.05,WNW,294,5.0,-999.0,62,0.00,,,0.00,Wunderground v.1.15,2013-01-22 00:04:00,
2013-01-21 19:10:00,15.2,4.1,30.05,WNW,288,4.0,-999.0,61,0.00,,,0.00,Wunderground v.1.15,2013-01-22 00:10:00,
2013-01-21 19:16:00,15.2,4.1,30.05,WNW,297,4.0,-999.0,61,0.00,,,0.00,Wunderground v.1.15,2013-01-22 00:16:00,
2013-01-21 19:22:00,15.2,3.8,30.05,WNW,284,4.0,-999.0,60,0.00,,,0.00,Wunderground v.1.15,2013-01-22 00:22:00,
2013-01-21 19:28:00,15.3,3.5,30.05,WNW,290,5.0,-999.0,59,0.00,,,0.00,Wunderground v.1.15,2013-01-22 00:28:00,
2013-01-21 19:34:00,15.4,3.6,30.05,West,278,6.0,-999.0,59,0.00,,,0.00,Wunderground v.1.15,2013-01-22 00:34:00,
2013-01-21 19:39:00,15.5,4.1,30.05,WNW,287,7.0,-999.0,60,0.00,,,0.00,Wunderground v.1.15,2013-01-22 00:39:00,
2013-01-21 19:45:00,15.5,4.1,30.05,WNW,299,8.0,-999.0,60,0.00,,,0.00,Wunderground v.1.15,2013-01-22 00:45:00,
2013-01-21 19:50:00,15.5,4.4,30.05,WNW,290,7.0,-999.0,61,0.00,,,0.00,Wunderground v.1.15,2013-01-22 00:50:00,
2013-01-21 19:56:00,15.6,4.9,30.06,NW,311,7.0,-999.0,62,0.00,,,0.00,Wunderground v.1.15,2013-01-22 00:56:00,
2013-01-21 20:02:00,15.6,5.2,30.06,WNW,292,7.0,-999.0,63,0.00,,,0.00,Wunderground v.1.15,2013-01-22 01:02:00,
2013-01-21 20:08:00,15.4,6.1,30.06,WNW,285,7.0,-999.0,66,0.00,,,0.00,Wunderground v.1.15,2013-01-22 01:08:00,
2013-01-21 20:14:00,15.2,6.5,30.06,WNW,302,6.0,-999.0,68,0.00,,,0.00,Wunderground v.1.15,2013-01-22 01:14:00,
2013-01-21 20:20:00,15.1,7.1,30.06,WNW,299,5.0,-999.0,70,0.00,,,0.00,Wunderground v.1.15,2013-01-22 01:20:00,
2013-01-21 20:26:00,15.0,7.3,30.05,WNW,302,4.0,-999.0,71,0.00,,,0.00,Wunderground v.1.15,2013-01-22 01:26:00,
2013-01-21 20:32:00,14.7,7.9,30.06,NW,307,4.0,-999.0,74,0.00,,,0.00,Wunderground v.1.15,2013-01-22 01:32:00,
2013-01-21 20:38:00,14.5,8.3,30.06,WNW,288,4.0,-999.0,76,0.00,,,0.00,Wunderground v.1.15,2013-01-22 01:38:00,
2013-01-21 20:43:00,14.4,8.8,30.06,WNW,294,3.0,-999.0,78,0.00,,,0.00,Wunderground v.1.15,2013-01-22 01:43:00,
2013-01-21 20:49:00,14.1,8.8,30.06,NW,305,3.0,-999.0,79,0.00,,,0.00,Wunderground v.1.15,2013-01-22 01:49:00,
2013-01-21 20:55:00,13.7,9.0,30.07,WNW,297,6.0,-999.0,81,0.00,,,0.00,Wunderground v.1.15,2013-01-22 01:55:00,
2013-01-21 21:00:00,13.4,8.9,30.06,WNW,288,7.0,-999.0,82,0.00,,,0.00,Wunderground v.1.15,2013-01-22 02:00:00,
2013-01-21 21:06:00,13.1,8.6,30.06,WNW,286,7.0,-999.0,82,0.00,,,0.00,Wunderground v.1.15,2013-01-22 02:06:00,
2013-01-21 21:12:00,13.2,8.2,30.06,West,268,5.0,-999.0,80,0.00,,,0.00,Wunderground v.1.15,2013-01-22 02:12:00,
2013-01-21 21:18:00,13.3,6.6,30.07,WNW,301,5.0,-999.0,74,0.00,,,0.00,Wunderground v.1.15,2013-01-22 02:18:00,
2013-01-21 21:24:00,13.2,4.6,30.07,NW,316,7.0,-999.0,68,0.00,,,0.00,Wunderground v.1.15,2013-01-22 02:24:00,
2013-01-21 21:30:00,13.1,3.5,30.07,WNW,289,7.0,-999.0,65,0.00,,,0.00,Wunderground v.1.15,2013-01-22 02:30:00,
2013-01-21 21:35:00,12.9,3.3,30.07,WNW,283,7.0,-999.0,65,0.00,,,0.00,Wunderground v.1.15,2013-01-22 02:35:00,
2013-01-21 21:41:00,12.7,3.5,30.08,WNW,293,5.0,-999.0,66,0.00,,,0.00,Wunderground v.1.15,2013-01-22 02:41:00,
2013-01-21 21:47:00,12.6,3.1,30.08,WNW,293,5.0,-999.0,65,0.00,,,0.00,Wunderground v.1.15,2013-01-22 02:47:00,
2013-01-21 21:53:00,12.5,3.0,30.08,NW,304,6.0,-999.0,65,0.00,,,0.00,Wunderground v.1.15,2013-01-22 02:53:00,
2013-01-21 21:58:00,12.4,2.9,30.08,WNW,292,5.0,-999.0,65,0.00,,,0.00,Wunderground v.1.15,2013-01-22 02:58:00,
2013-01-21 22:04:00,12.2,2.7,30.08,West,272,4.0,-999.0,65,0.00,,,0.00,Wunderground v.1.15,2013-01-22 03:04:00,
2013-01-21 22:09:00,12.3,2.4,30.08,West,271,5.0,-999.0,64,0.00,,,0.00,Wunderground v.1.15,2013-01-22 03:09:00,
2013-01-21 22:15:00,12.2,2.7,30.08,WNW,292,6.0,-999.0,65,0.00,,,0.00,Wunderground v.1.15,2013-01-22 03:15:00,
2013-01-21 22:20:00,12.1,2.9,30.08,NW,311,5.0,-999.0,66,0.00,,,0.00,Wunderground v.1.15,2013-01-22 03:20:00,
2013-01-21 22:26:00,12.0,3.1,30.09,SW,219,5.0,-999.0,67,0.00,,,0.00,Wunderground v.1.15,2013-01-22 03:26:00,
2013-01-21 22:32:00,11.9,3.4,30.09,WNW,296,5.0,-999.0,68,0.00,,,0.00,Wunderground v.1.15,2013-01-22 03:32:00,
2013-01-21 22:38:00,11.8,2.9,30.09,WNW,300,5.0,-999.0,67,0.00,,,0.00,Wunderground v.1.15,2013-01-22 03:38:00,
2013-01-21 22:43:00,11.9,3.4,30.09,NW,306,6.0,-999.0,68,0.00,,,0.00,Wunderground v.1.15,2013-01-22 03:43:00,
2013-01-21 22:49:00,11.7,3.5,30.09,West,266,8.0,-999.0,69,0.00,,,0.00,Wunderground v.1.15,2013-01-22 03:49:00,
2013-01-21 22:55:00,11.5,3.3,30.09,WNW,286,7.0,-999.0,69,0.00,,,0.00,Wunderground v.1.15,2013-01-22 03:55:00,
2013-01-21 23:01:00,11.4,2.6,30.09,NW,311,7.0,-999.0,67,0.00,,,0.00,Wunderground v.1.15,2013-01-22 04:01:00,
2013-01-21 23:07:00,11.3,2.8,30.10,West,277,6.0,-999.0,68,0.00,,,0.00,Wunderground v.1.15,2013-01-22 04:07:00,
2013-01-21 23:13:00,11.3,3.4,30.10,NW,306,5.0,-999.0,70,0.00,,,0.00,Wunderground v.1.15,2013-01-22 04:13:00,
2013-01-21 23:19:00,11.2,4.8,30.10,WNW,294,4.0,-999.0,75,0.00,,,0.00,Wunderground v.1.15,2013-01-22 04:19:00,
2013-01-21 23:24:00,11.0,5.5,30.10,WNW,296,5.0,-999.0,78,0.00,,,0.00,Wunderground v.1.15,2013-01-22 04:24:00,
2013-01-21 23:29:00,10.7,5.7,30.10,WNW,293,5.0,-999.0,80,0.00,,,0.00,Wunderground v.1.15,2013-01-22 04:29:00,
2013-01-21 23:35:00,10.5,5.8,30.10,WNW,285,6.0,-999.0,81,0.00,,,0.00,Wunderground v.1.15,2013-01-22 04:35:00,
2013-01-21 23:41:00,10.3,5.6,30.10,WNW,284,7.0,-999.0,81,0.00,,,0.00,Wunderground v.1.15,2013-01-22 04:41:00,
2013-01-21 23:46:00,10.4,5.5,30.10,WNW,283,7.0,-999.0,80,0.00,,,0.00,Wunderground v.1.15,2013-01-22 04:46:00,
2013-01-21 23:52:00,10.5,5.5,30.11,WNW,298,6.0,-999.0,80,0.00,,,0.00,Wunderground v.1.15,2013-01-22 04:52:00,
2013-01-21 23:58:00,10.6,5.4,30.11,WNW,302,6.0,-999.0,79,0.00,,,0.00,Wunderground v.1.15,2013-01-22 04:58:00,